sensor_id;sensor_type;location;lat;lon;timestamp;temperature;humidity
14006;DHT22;7078;51.542;7.314;2024-01-30T00:01:00;8.40;99.90
14006;DHT22;7078;51.542;7.314;2024-01-30T00:03:26;8.40;99.90
14006;DHT22;7078;51.542;7.314;2024-01-30T00:05:51;8.40;99.90
14006;DHT22;7078;51.542;7.314;2024-01-30T00:08:17;8.40;99.90
14006;DHT22;7078;51.542;7.314;2024-01-30T00:10:43;8.30;99.90
14006;DHT22;7078;51.542;7.314;2024-01-30T00:13:08;8.30;99.90
14006;DHT22;7078;51.542;7.314;2024-01-30T00:15:34;8.30;99.90
14006;DHT22;7078;51.542;7.314;2024-01-30T00:18:00;8.30;99.90
14006;DHT22;7078;51.542;7.314;2024-01-30T00:20:26;8.30;99.90
14006;DHT22;7078;51.542;7.314;2024-01-30T00:22:52;8.30;99.90
14006;DHT22;7078;51.542;7.314;2024-01-30T00:25:18;8.20;99.90
14006;DHT22;7078;51.542;7.314;2024-01-30T00:27:44;8.30;99.90
14006;DHT22;7078;51.542;7.314;2024-01-30T00:30:10;8.20;99.90
14006;DHT22;7078;51.542;7.314;2024-01-30T00:32:35;8.20;99.90
14006;DHT22;7078;51.542;7.314;2024-01-30T00:35:01;8.20;99.90
14006;DHT22;7078;51.542;7.314;2024-01-30T00:37:26;8.20;99.90
14006;DHT22;7078;51.542;7.314;2024-01-30T00:39:52;8.20;99.90
14006;DHT22;7078;51.542;7.314;2024-01-30T00:42:17;8.20;99.90
14006;DHT22;7078;51.542;7.314;2024-01-30T00:44:43;8.30;99.90
14006;DHT22;7078;51.542;7.314;2024-01-30T00:47:08;8.30;99.90
14006;DHT22;7078;51.542;7.314;2024-01-30T00:49:34;8.30;99.90
14006;DHT22;7078;51.542;7.314;2024-01-30T00:52:00;8.30;99.90
14006;DHT22;7078;51.542;7.314;2024-01-30T00:54:25;8.30;99.90
14006;DHT22;7078;51.542;7.314;2024-01-30T00:56:51;8.40;99.90
14006;DHT22;7078;51.542;7.314;2024-01-30T00:59:16;8.40;99.90
14006;DHT22;7078;51.542;7.314;2024-01-30T01:01:42;8.40;99.90
14006;DHT22;7078;51.542;7.314;2024-01-30T01:04:07;8.40;99.90
14006;DHT22;7078;51.542;7.314;2024-01-30T01:06:33;8.40;99.90
14006;DHT22;7078;51.542;7.314;2024-01-30T01:08:58;8.40;99.90
14006;DHT22;7078;51.542;7.314;2024-01-30T01:11:24;8.40;99.90
14006;DHT22;7078;51.542;7.314;2024-01-30T01:13:49;8.40;99.90
14006;DHT22;7078;51.542;7.314;2024-01-30T01:16:15;8.40;99.90
14006;DHT22;7078;51.542;7.314;2024-01-30T01:18:40;8.40;99.90
14006;DHT22;7078;51.542;7.314;2024-01-30T01:21:06;8.40;99.90
14006;DHT22;7078;51.542;7.314;2024-01-30T01:23:32;8.40;99.90
14006;DHT22;7078;51.542;7.314;2024-01-30T01:25:57;8.40;99.90
14006;DHT22;7078;51.542;7.314;2024-01-30T01:28:25;8.40;99.90
14006;DHT22;7078;51.542;7.314;2024-01-30T01:30:50;8.30;99.90
14006;DHT22;7078;51.542;7.314;2024-01-30T01:33:16;8.40;99.90
14006;DHT22;7078;51.542;7.314;2024-01-30T01:35:42;8.40;99.90
14006;DHT22;7078;51.542;7.314;2024-01-30T01:38:08;8.40;99.90
14006;DHT22;7078;51.542;7.314;2024-01-30T01:40:34;8.40;99.90
14006;DHT22;7078;51.542;7.314;2024-01-30T01:43:03;8.30;99.90
14006;DHT22;7078;51.542;7.314;2024-01-30T01:45:29;8.40;99.90
14006;DHT22;7078;51.542;7.314;2024-01-30T01:47:55;8.30;99.90
14006;DHT22;7078;51.542;7.314;2024-01-30T01:50:21;8.40;99.90
14006;DHT22;7078;51.542;7.314;2024-01-30T01:52:48;8.30;99.90
14006;DHT22;7078;51.542;7.314;2024-01-30T01:55:15;8.30;99.90
14006;DHT22;7078;51.542;7.314;2024-01-30T01:57:44;8.30;99.90
14006;DHT22;7078;51.542;7.314;2024-01-30T02:00:10;8.30;99.90
14006;DHT22;7078;51.542;7.314;2024-01-30T02:02:37;8.30;99.90
14006;DHT22;7078;51.542;7.314;2024-01-30T02:05:04;8.30;99.90
14006;DHT22;7078;51.542;7.314;2024-01-30T02:07:30;8.20;99.90
14006;DHT22;7078;51.542;7.314;2024-01-30T02:09:55;8.20;99.90
14006;DHT22;7078;51.542;7.314;2024-01-30T02:12:21;8.20;99.90
14006;DHT22;7078;51.542;7.314;2024-01-30T02:14:48;8.20;99.90
14006;DHT22;7078;51.542;7.314;2024-01-30T02:17:15;8.10;99.90
14006;DHT22;7078;51.542;7.314;2024-01-30T02:19:40;8.20;99.90
14006;DHT22;7078;51.542;7.314;2024-01-30T02:22:07;8.20;99.90
14006;DHT22;7078;51.542;7.314;2024-01-30T02:24:32;8.20;99.90
14006;DHT22;7078;51.542;7.314;2024-01-30T02:26:58;8.20;99.90
14006;DHT22;7078;51.542;7.314;2024-01-30T02:29:23;8.20;99.90
14006;DHT22;7078;51.542;7.314;2024-01-30T02:31:49;8.20;99.90
14006;DHT22;7078;51.542;7.314;2024-01-30T02:34:14;8.20;99.90
14006;DHT22;7078;51.542;7.314;2024-01-30T02:36:43;8.20;99.90
14006;DHT22;7078;51.542;7.314;2024-01-30T02:39:09;8.30;99.90
14006;DHT22;7078;51.542;7.314;2024-01-30T02:41:35;8.30;99.90
14006;DHT22;7078;51.542;7.314;2024-01-30T02:44:01;8.30;99.90
14006;DHT22;7078;51.542;7.314;2024-01-30T02:46:27;8.30;99.90
14006;DHT22;7078;51.542;7.314;2024-01-30T02:48:52;8.20;99.90
14006;DHT22;7078;51.542;7.314;2024-01-30T02:51:18;8.20;99.90
14006;DHT22;7078;51.542;7.314;2024-01-30T02:53:43;8.20;99.90
14006;DHT22;7078;51.542;7.314;2024-01-30T02:56:09;8.20;99.90
14006;DHT22;7078;51.542;7.314;2024-01-30T02:58:36;8.20;99.90
14006;DHT22;7078;51.542;7.314;2024-01-30T03:01:02;8.20;99.90
14006;DHT22;7078;51.542;7.314;2024-01-30T03:03:28;8.20;99.90
14006;DHT22;7078;51.542;7.314;2024-01-30T03:05:53;8.20;99.90
14006;DHT22;7078;51.542;7.314;2024-01-30T03:08:19;8.10;99.90
14006;DHT22;7078;51.542;7.314;2024-01-30T03:10:45;8.10;99.90
14006;DHT22;7078;51.542;7.314;2024-01-30T03:13:10;8.10;99.90
14006;DHT22;7078;51.542;7.314;2024-01-30T03:15:36;8.20;99.90
14006;DHT22;7078;51.542;7.314;2024-01-30T03:18:02;8.10;99.90
14006;DHT22;7078;51.542;7.314;2024-01-30T03:20:29;8.10;99.90
14006;DHT22;7078;51.542;7.314;2024-01-30T03:22:55;8.10;99.90
14006;DHT22;7078;51.542;7.314;2024-01-30T03:25:20;8.10;99.90
14006;DHT22;7078;51.542;7.314;2024-01-30T03:27:46;8.10;99.90
14006;DHT22;7078;51.542;7.314;2024-01-30T03:30:12;8.10;99.90
14006;DHT22;7078;51.542;7.314;2024-01-30T03:32:37;8.10;99.90
14006;DHT22;7078;51.542;7.314;2024-01-30T03:35:03;8.10;99.90
14006;DHT22;7078;51.542;7.314;2024-01-30T03:37:29;8.00;99.90
14006;DHT22;7078;51.542;7.314;2024-01-30T03:39:55;8.10;99.90
14006;DHT22;7078;51.542;7.314;2024-01-30T03:42:20;8.10;99.90
14006;DHT22;7078;51.542;7.314;2024-01-30T03:44:46;8.10;99.90
14006;DHT22;7078;51.542;7.314;2024-01-30T03:47:11;8.10;99.90
14006;DHT22;7078;51.542;7.314;2024-01-30T03:49:37;8.10;99.90
14006;DHT22;7078;51.542;7.314;2024-01-30T03:52:03;8.10;99.90
14006;DHT22;7078;51.542;7.314;2024-01-30T03:54:29;8.00;99.90
14006;DHT22;7078;51.542;7.314;2024-01-30T03:56:54;8.00;99.90
14006;DHT22;7078;51.542;7.314;2024-01-30T03:59:20;8.10;99.90
14006;DHT22;7078;51.542;7.314;2024-01-30T04:01:50;8.10;99.90
14006;DHT22;7078;51.542;7.314;2024-01-30T04:04:16;8.10;99.90
14006;DHT22;7078;51.542;7.314;2024-01-30T04:06:42;8.00;99.90
14006;DHT22;7078;51.542;7.314;2024-01-30T04:09:07;8.00;99.90
14006;DHT22;7078;51.542;7.314;2024-01-30T04:11:33;8.10;99.90
14006;DHT22;7078;51.542;7.314;2024-01-30T04:13:58;8.10;99.90
14006;DHT22;7078;51.542;7.314;2024-01-30T04:16:24;8.10;99.90
14006;DHT22;7078;51.542;7.314;2024-01-30T04:18:51;8.10;99.90
14006;DHT22;7078;51.542;7.314;2024-01-30T04:21:17;8.10;99.90
14006;DHT22;7078;51.542;7.314;2024-01-30T04:23:42;8.10;99.90
14006;DHT22;7078;51.542;7.314;2024-01-30T04:26:08;8.10;99.90
14006;DHT22;7078;51.542;7.314;2024-01-30T04:28:34;8.20;99.90
14006;DHT22;7078;51.542;7.314;2024-01-30T04:30:59;8.20;99.90
14006;DHT22;7078;51.542;7.314;2024-01-30T04:33:24;8.20;99.90
14006;DHT22;7078;51.542;7.314;2024-01-30T04:35:50;8.20;99.90
14006;DHT22;7078;51.542;7.314;2024-01-30T04:38:15;8.30;99.90
14006;DHT22;7078;51.542;7.314;2024-01-30T04:40:41;8.20;99.90
14006;DHT22;7078;51.542;7.314;2024-01-30T04:43:07;8.20;99.90
14006;DHT22;7078;51.542;7.314;2024-01-30T04:45:32;8.20;99.90
14006;DHT22;7078;51.542;7.314;2024-01-30T04:47:58;8.20;99.90
14006;DHT22;7078;51.542;7.314;2024-01-30T04:50:23;8.20;99.90
14006;DHT22;7078;51.542;7.314;2024-01-30T04:52:49;8.20;99.90
14006;DHT22;7078;51.542;7.314;2024-01-30T04:55:15;8.20;99.90
14006;DHT22;7078;51.542;7.314;2024-01-30T04:57:40;8.20;99.90
14006;DHT22;7078;51.542;7.314;2024-01-30T05:00:06;8.20;99.90
14006;DHT22;7078;51.542;7.314;2024-01-30T05:02:32;8.20;99.90
14006;DHT22;7078;51.542;7.314;2024-01-30T05:04:58;8.20;99.90
14006;DHT22;7078;51.542;7.314;2024-01-30T05:07:24;8.20;99.90
14006;DHT22;7078;51.542;7.314;2024-01-30T05:09:50;8.30;99.90
14006;DHT22;7078;51.542;7.314;2024-01-30T05:12:16;8.30;99.90
14006;DHT22;7078;51.542;7.314;2024-01-30T05:14:41;8.30;99.90
14006;DHT22;7078;51.542;7.314;2024-01-30T05:17:07;8.30;99.90
14006;DHT22;7078;51.542;7.314;2024-01-30T05:19:34;8.30;99.90
14006;DHT22;7078;51.542;7.314;2024-01-30T05:22:00;8.40;99.90
14006;DHT22;7078;51.542;7.314;2024-01-30T05:24:25;8.30;99.90
14006;DHT22;7078;51.542;7.314;2024-01-30T05:26:51;8.40;99.90
14006;DHT22;7078;51.542;7.314;2024-01-30T05:29:16;8.40;99.90
14006;DHT22;7078;51.542;7.314;2024-01-30T05:31:42;8.30;99.90
14006;DHT22;7078;51.542;7.314;2024-01-30T05:34:08;8.40;99.90
14006;DHT22;7078;51.542;7.314;2024-01-30T05:36:34;8.40;99.90
14006;DHT22;7078;51.542;7.314;2024-01-30T05:39:00;8.40;99.90
14006;DHT22;7078;51.542;7.314;2024-01-30T05:41:25;8.40;99.90
14006;DHT22;7078;51.542;7.314;2024-01-30T05:43:51;8.40;99.90
14006;DHT22;7078;51.542;7.314;2024-01-30T05:46:16;8.40;99.90
14006;DHT22;7078;51.542;7.314;2024-01-30T05:48:42;8.40;99.90
14006;DHT22;7078;51.542;7.314;2024-01-30T05:51:08;8.40;99.90
14006;DHT22;7078;51.542;7.314;2024-01-30T05:53:33;8.40;99.90
14006;DHT22;7078;51.542;7.314;2024-01-30T05:56:02;8.50;99.90
14006;DHT22;7078;51.542;7.314;2024-01-30T05:58:28;8.50;99.90
14006;DHT22;7078;51.542;7.314;2024-01-30T06:00:53;8.60;99.90
14006;DHT22;7078;51.542;7.314;2024-01-30T06:03:19;8.60;99.90
14006;DHT22;7078;51.542;7.314;2024-01-30T06:05:44;8.60;99.90
14006;DHT22;7078;51.542;7.314;2024-01-30T06:08:10;8.60;99.90
14006;DHT22;7078;51.542;7.314;2024-01-30T06:10:36;8.60;99.90
14006;DHT22;7078;51.542;7.314;2024-01-30T06:13:01;8.70;99.90
14006;DHT22;7078;51.542;7.314;2024-01-30T06:15:27;8.80;99.90
14006;DHT22;7078;51.542;7.314;2024-01-30T06:17:55;8.80;99.90
14006;DHT22;7078;51.542;7.314;2024-01-30T06:20:20;8.80;99.90
14006;DHT22;7078;51.542;7.314;2024-01-30T06:22:46;8.90;99.90
14006;DHT22;7078;51.542;7.314;2024-01-30T06:25:11;8.80;99.90
14006;DHT22;7078;51.542;7.314;2024-01-30T06:27:37;8.80;99.90
14006;DHT22;7078;51.542;7.314;2024-01-30T06:30:04;8.80;99.90
14006;DHT22;7078;51.542;7.314;2024-01-30T06:32:29;8.90;99.90
14006;DHT22;7078;51.542;7.314;2024-01-30T06:35:00;8.80;99.90
14006;DHT22;7078;51.542;7.314;2024-01-30T06:37:25;8.80;99.90
14006;DHT22;7078;51.542;7.314;2024-01-30T06:39:51;8.80;99.90
14006;DHT22;7078;51.542;7.314;2024-01-30T06:42:18;8.80;99.90
14006;DHT22;7078;51.542;7.314;2024-01-30T06:44:43;8.80;99.90
14006;DHT22;7078;51.542;7.314;2024-01-30T06:47:09;8.80;99.90
14006;DHT22;7078;51.542;7.314;2024-01-30T06:49:35;8.80;99.90
14006;DHT22;7078;51.542;7.314;2024-01-30T06:52:06;8.90;99.90
14006;DHT22;7078;51.542;7.314;2024-01-30T06:54:32;8.90;99.90
14006;DHT22;7078;51.542;7.314;2024-01-30T06:56:58;8.90;99.90
14006;DHT22;7078;51.542;7.314;2024-01-30T06:59:24;9.00;99.90
14006;DHT22;7078;51.542;7.314;2024-01-30T07:01:50;9.10;99.90
14006;DHT22;7078;51.542;7.314;2024-01-30T07:04:15;9.20;99.90
14006;DHT22;7078;51.542;7.314;2024-01-30T07:06:41;9.10;99.90
14006;DHT22;7078;51.542;7.314;2024-01-30T07:09:07;9.30;99.90
14006;DHT22;7078;51.542;7.314;2024-01-30T07:11:34;9.30;99.90
14006;DHT22;7078;51.542;7.314;2024-01-30T07:13:59;9.30;99.90
14006;DHT22;7078;51.542;7.314;2024-01-30T07:16:25;9.30;99.90
14006;DHT22;7078;51.542;7.314;2024-01-30T07:18:51;9.20;99.90
14006;DHT22;7078;51.542;7.314;2024-01-30T07:21:16;9.20;99.90
14006;DHT22;7078;51.542;7.314;2024-01-30T07:23:42;9.20;99.90
14006;DHT22;7078;51.542;7.314;2024-01-30T07:26:08;9.20;99.90
14006;DHT22;7078;51.542;7.314;2024-01-30T07:28:35;9.20;99.90
14006;DHT22;7078;51.542;7.314;2024-01-30T07:31:01;9.20;99.90
14006;DHT22;7078;51.542;7.314;2024-01-30T07:33:26;9.20;99.90
14006;DHT22;7078;51.542;7.314;2024-01-30T07:35:53;9.20;99.90
14006;DHT22;7078;51.542;7.314;2024-01-30T07:38:19;9.20;99.90
14006;DHT22;7078;51.542;7.314;2024-01-30T07:40:44;9.20;99.90
14006;DHT22;7078;51.542;7.314;2024-01-30T07:43:10;9.10;99.90
14006;DHT22;7078;51.542;7.314;2024-01-30T07:45:35;9.20;99.90
14006;DHT22;7078;51.542;7.314;2024-01-30T07:48:02;9.20;99.90
14006;DHT22;7078;51.542;7.314;2024-01-30T07:50:28;9.20;99.90
14006;DHT22;7078;51.542;7.314;2024-01-30T07:52:55;9.30;99.90
14006;DHT22;7078;51.542;7.314;2024-01-30T07:55:21;9.30;99.90
14006;DHT22;7078;51.542;7.314;2024-01-30T07:57:53;9.30;99.90
14006;DHT22;7078;51.542;7.314;2024-01-30T08:00:20;9.40;99.90
14006;DHT22;7078;51.542;7.314;2024-01-30T08:02:46;9.40;99.90
14006;DHT22;7078;51.542;7.314;2024-01-30T08:05:11;9.40;99.90
14006;DHT22;7078;51.542;7.314;2024-01-30T08:07:37;9.40;99.90
14006;DHT22;7078;51.542;7.314;2024-01-30T08:10:02;9.40;99.90
14006;DHT22;7078;51.542;7.314;2024-01-30T08:12:28;9.50;99.90
14006;DHT22;7078;51.542;7.314;2024-01-30T08:14:54;9.50;99.90
14006;DHT22;7078;51.542;7.314;2024-01-30T08:17:19;9.50;99.90
14006;DHT22;7078;51.542;7.314;2024-01-30T08:19:45;9.50;99.90
14006;DHT22;7078;51.542;7.314;2024-01-30T08:22:12;9.60;99.90
14006;DHT22;7078;51.542;7.314;2024-01-30T08:24:37;9.60;99.90
14006;DHT22;7078;51.542;7.314;2024-01-30T08:27:06;9.70;99.90
14006;DHT22;7078;51.542;7.314;2024-01-30T08:29:35;9.70;99.90
14006;DHT22;7078;51.542;7.314;2024-01-30T08:32:00;9.80;99.90
14006;DHT22;7078;51.542;7.314;2024-01-30T08:34:26;9.80;99.90
14006;DHT22;7078;51.542;7.314;2024-01-30T08:36:51;9.80;99.90
14006;DHT22;7078;51.542;7.314;2024-01-30T08:39:17;9.90;99.90
14006;DHT22;7078;51.542;7.314;2024-01-30T08:41:42;9.90;99.90
14006;DHT22;7078;51.542;7.314;2024-01-30T08:44:08;9.90;99.90
14006;DHT22;7078;51.542;7.314;2024-01-30T08:46:33;9.90;99.90
14006;DHT22;7078;51.542;7.314;2024-01-30T08:48:59;9.90;99.90
14006;DHT22;7078;51.542;7.314;2024-01-30T08:51:24;9.90;99.90
14006;DHT22;7078;51.542;7.314;2024-01-30T08:53:50;10.00;99.90
14006;DHT22;7078;51.542;7.314;2024-01-30T08:56:16;10.00;99.90
14006;DHT22;7078;51.542;7.314;2024-01-30T08:58:42;10.00;99.90
14006;DHT22;7078;51.542;7.314;2024-01-30T09:01:07;10.10;99.90
14006;DHT22;7078;51.542;7.314;2024-01-30T09:03:33;10.10;99.90
14006;DHT22;7078;51.542;7.314;2024-01-30T09:05:59;10.10;99.90
14006;DHT22;7078;51.542;7.314;2024-01-30T09:08:24;10.20;99.90
14006;DHT22;7078;51.542;7.314;2024-01-30T09:10:50;10.20;99.90
14006;DHT22;7078;51.542;7.314;2024-01-30T09:13:15;10.20;99.90
14006;DHT22;7078;51.542;7.314;2024-01-30T09:15:42;10.20;99.90
14006;DHT22;7078;51.542;7.314;2024-01-30T09:18:07;10.30;99.90
14006;DHT22;7078;51.542;7.314;2024-01-30T09:20:33;10.30;99.90
14006;DHT22;7078;51.542;7.314;2024-01-30T09:22:58;10.40;99.90
14006;DHT22;7078;51.542;7.314;2024-01-30T09:25:24;10.40;99.90
14006;DHT22;7078;51.542;7.314;2024-01-30T09:27:49;10.50;99.90
14006;DHT22;7078;51.542;7.314;2024-01-30T09:30:15;10.50;99.90
14006;DHT22;7078;51.542;7.314;2024-01-30T09:32:41;10.60;99.90
14006;DHT22;7078;51.542;7.314;2024-01-30T09:35:07;10.60;99.90
14006;DHT22;7078;51.542;7.314;2024-01-30T09:37:32;10.70;99.90
14006;DHT22;7078;51.542;7.314;2024-01-30T09:39:58;10.70;99.90
14006;DHT22;7078;51.542;7.314;2024-01-30T09:42:34;10.70;99.90
14006;DHT22;7078;51.542;7.314;2024-01-30T09:45:04;10.80;99.90
14006;DHT22;7078;51.542;7.314;2024-01-30T09:47:48;10.70;99.90
14006;DHT22;7078;51.542;7.314;2024-01-30T09:50:14;10.80;99.90
14006;DHT22;7078;51.542;7.314;2024-01-30T09:52:40;10.80;99.90
14006;DHT22;7078;51.542;7.314;2024-01-30T09:55:07;10.90;99.90
14006;DHT22;7078;51.542;7.314;2024-01-30T09:57:36;10.90;99.90
14006;DHT22;7078;51.542;7.314;2024-01-30T10:00:02;11.00;99.90
14006;DHT22;7078;51.542;7.314;2024-01-30T10:02:31;11.10;99.90
14006;DHT22;7078;51.542;7.314;2024-01-30T10:04:56;11.20;99.90
14006;DHT22;7078;51.542;7.314;2024-01-30T10:07:22;11.30;99.90
14006;DHT22;7078;51.542;7.314;2024-01-30T10:09:48;11.40;99.90
14006;DHT22;7078;51.542;7.314;2024-01-30T10:12:15;11.50;99.90
14006;DHT22;7078;51.542;7.314;2024-01-30T10:14:44;11.60;99.90
14006;DHT22;7078;51.542;7.314;2024-01-30T10:17:11;11.70;99.90
14006;DHT22;7078;51.542;7.314;2024-01-30T10:19:38;11.80;99.90
14006;DHT22;7078;51.542;7.314;2024-01-30T10:22:04;11.90;99.90
14006;DHT22;7078;51.542;7.314;2024-01-30T10:24:30;11.90;99.90
14006;DHT22;7078;51.542;7.314;2024-01-30T10:26:56;12.00;99.90
14006;DHT22;7078;51.542;7.314;2024-01-30T10:29:22;12.10;99.90
14006;DHT22;7078;51.542;7.314;2024-01-30T10:32:01;12.20;99.90
14006;DHT22;7078;51.542;7.314;2024-01-30T10:34:26;12.40;99.90
14006;DHT22;7078;51.542;7.314;2024-01-30T10:37:03;12.60;99.90
14006;DHT22;7078;51.542;7.314;2024-01-30T10:39:37;12.70;99.90
14006;DHT22;7078;51.542;7.314;2024-01-30T10:42:05;12.80;99.90
14006;DHT22;7078;51.542;7.314;2024-01-30T10:44:57;12.90;99.90
14006;DHT22;7078;51.542;7.314;2024-01-30T10:47:28;12.90;99.90
14006;DHT22;7078;51.542;7.314;2024-01-30T10:49:55;13.00;99.90
14006;DHT22;7078;51.542;7.314;2024-01-30T10:52:21;13.00;99.90
14006;DHT22;7078;51.542;7.314;2024-01-30T10:54:49;13.00;99.90
14006;DHT22;7078;51.542;7.314;2024-01-30T10:57:15;13.00;99.90
14006;DHT22;7078;51.542;7.314;2024-01-30T10:59:42;13.10;99.90
14006;DHT22;7078;51.542;7.314;2024-01-30T11:02:08;13.20;99.90
14006;DHT22;7078;51.542;7.314;2024-01-30T11:04:40;13.30;99.90
14006;DHT22;7078;51.542;7.314;2024-01-30T11:07:19;13.30;99.90
14006;DHT22;7078;51.542;7.314;2024-01-30T11:10:09;13.40;99.90
14006;DHT22;7078;51.542;7.314;2024-01-30T11:12:39;13.40;99.90
14006;DHT22;7078;51.542;7.314;2024-01-30T11:15:18;13.50;99.90
14006;DHT22;7078;51.542;7.314;2024-01-30T11:17:47;13.60;99.90
14006;DHT22;7078;51.542;7.314;2024-01-30T11:20:16;13.50;99.90
14006;DHT22;7078;51.542;7.314;2024-01-30T11:22:45;13.60;99.90
14006;DHT22;7078;51.542;7.314;2024-01-30T11:25:13;13.70;99.90
14006;DHT22;7078;51.542;7.314;2024-01-30T11:27:39;13.80;99.90
14006;DHT22;7078;51.542;7.314;2024-01-30T11:30:05;13.80;99.90
14006;DHT22;7078;51.542;7.314;2024-01-30T11:32:31;13.80;99.90
14006;DHT22;7078;51.542;7.314;2024-01-30T11:34:57;13.70;99.90
14006;DHT22;7078;51.542;7.314;2024-01-30T11:37:25;13.60;99.90
14006;DHT22;7078;51.542;7.314;2024-01-30T11:39:53;13.60;99.90
14006;DHT22;7078;51.542;7.314;2024-01-30T11:42:19;13.60;99.90
14006;DHT22;7078;51.542;7.314;2024-01-30T11:44:48;13.50;99.90
14006;DHT22;7078;51.542;7.314;2024-01-30T11:47:14;13.50;99.90
14006;DHT22;7078;51.542;7.314;2024-01-30T11:49:40;13.50;99.90
14006;DHT22;7078;51.542;7.314;2024-01-30T11:52:06;13.50;99.90
14006;DHT22;7078;51.542;7.314;2024-01-30T11:54:32;13.40;99.90
14006;DHT22;7078;51.542;7.314;2024-01-30T11:56:57;13.40;99.90
14006;DHT22;7078;51.542;7.314;2024-01-30T11:59:23;13.30;99.90
14006;DHT22;7078;51.542;7.314;2024-01-30T12:01:48;13.30;99.90
14006;DHT22;7078;51.542;7.314;2024-01-30T12:04:15;13.30;99.90
14006;DHT22;7078;51.542;7.314;2024-01-30T12:06:40;13.10;99.90
14006;DHT22;7078;51.542;7.314;2024-01-30T12:09:06;13.00;99.90
14006;DHT22;7078;51.542;7.314;2024-01-30T12:11:43;13.00;99.90
14006;DHT22;7078;51.542;7.314;2024-01-30T12:14:09;12.90;99.90
14006;DHT22;7078;51.542;7.314;2024-01-30T12:16:35;13.00;99.90
14006;DHT22;7078;51.542;7.314;2024-01-30T12:19:01;12.90;99.90
14006;DHT22;7078;51.542;7.314;2024-01-30T12:21:28;13.00;99.90
14006;DHT22;7078;51.542;7.314;2024-01-30T12:23:54;12.90;99.90
14006;DHT22;7078;51.542;7.314;2024-01-30T12:26:19;12.80;99.90
14006;DHT22;7078;51.542;7.314;2024-01-30T12:28:54;12.80;99.90
14006;DHT22;7078;51.542;7.314;2024-01-30T12:31:26;12.70;99.90
14006;DHT22;7078;51.542;7.314;2024-01-30T12:33:52;12.70;99.90
14006;DHT22;7078;51.542;7.314;2024-01-30T12:36:18;12.60;99.90
14006;DHT22;7078;51.542;7.314;2024-01-30T12:38:43;12.70;99.90
14006;DHT22;7078;51.542;7.314;2024-01-30T12:41:09;12.70;99.90
14006;DHT22;7078;51.542;7.314;2024-01-30T12:43:35;12.70;99.90
14006;DHT22;7078;51.542;7.314;2024-01-30T12:46:01;12.70;99.90
14006;DHT22;7078;51.542;7.314;2024-01-30T12:48:28;12.80;99.90
14006;DHT22;7078;51.542;7.314;2024-01-30T12:50:55;12.70;99.90
14006;DHT22;7078;51.542;7.314;2024-01-30T12:53:21;12.80;99.90
14006;DHT22;7078;51.542;7.314;2024-01-30T12:55:47;12.70;99.90
14006;DHT22;7078;51.542;7.314;2024-01-30T12:58:12;12.70;99.90
14006;DHT22;7078;51.542;7.314;2024-01-30T13:00:38;12.70;99.90
14006;DHT22;7078;51.542;7.314;2024-01-30T13:03:03;12.70;99.90
14006;DHT22;7078;51.542;7.314;2024-01-30T13:05:29;12.70;99.90
14006;DHT22;7078;51.542;7.314;2024-01-30T13:07:55;12.70;99.90
14006;DHT22;7078;51.542;7.314;2024-01-30T13:10:22;12.70;99.90
14006;DHT22;7078;51.542;7.314;2024-01-30T13:12:48;12.60;99.90
14006;DHT22;7078;51.542;7.314;2024-01-30T13:15:13;12.60;99.90
14006;DHT22;7078;51.542;7.314;2024-01-30T13:17:39;12.60;99.90
14006;DHT22;7078;51.542;7.314;2024-01-30T13:20:05;12.60;99.90
14006;DHT22;7078;51.542;7.314;2024-01-30T13:22:33;12.50;99.90
14006;DHT22;7078;51.542;7.314;2024-01-30T13:24:59;12.50;99.90
14006;DHT22;7078;51.542;7.314;2024-01-30T13:27:24;12.50;99.90
14006;DHT22;7078;51.542;7.314;2024-01-30T13:29:50;12.50;99.90
14006;DHT22;7078;51.542;7.314;2024-01-30T13:32:15;12.40;99.90
14006;DHT22;7078;51.542;7.314;2024-01-30T13:34:41;12.40;99.90
14006;DHT22;7078;51.542;7.314;2024-01-30T13:37:08;12.40;99.90
14006;DHT22;7078;51.542;7.314;2024-01-30T13:39:34;12.40;99.90
14006;DHT22;7078;51.542;7.314;2024-01-30T13:41:59;12.40;99.90
14006;DHT22;7078;51.542;7.314;2024-01-30T13:44:25;12.40;99.90
14006;DHT22;7078;51.542;7.314;2024-01-30T13:46:50;12.30;99.90
14006;DHT22;7078;51.542;7.314;2024-01-30T13:49:16;12.30;99.90
14006;DHT22;7078;51.542;7.314;2024-01-30T13:51:41;12.30;99.90
14006;DHT22;7078;51.542;7.314;2024-01-30T13:54:07;12.30;99.90
14006;DHT22;7078;51.542;7.314;2024-01-30T13:56:33;12.30;99.90
14006;DHT22;7078;51.542;7.314;2024-01-30T13:58:59;12.20;99.90
14006;DHT22;7078;51.542;7.314;2024-01-30T14:01:26;12.30;99.90
14006;DHT22;7078;51.542;7.314;2024-01-30T14:03:52;12.20;99.90
14006;DHT22;7078;51.542;7.314;2024-01-30T14:06:17;12.20;99.90
14006;DHT22;7078;51.542;7.314;2024-01-30T14:08:43;12.10;99.90
14006;DHT22;7078;51.542;7.314;2024-01-30T14:11:09;12.10;99.90
14006;DHT22;7078;51.542;7.314;2024-01-30T14:13:35;12.10;99.90
14006;DHT22;7078;51.542;7.314;2024-01-30T14:16:00;12.10;99.90
14006;DHT22;7078;51.542;7.314;2024-01-30T14:18:26;12.10;99.90
14006;DHT22;7078;51.542;7.314;2024-01-30T14:20:52;12.10;99.90
14006;DHT22;7078;51.542;7.314;2024-01-30T14:23:17;12.10;99.90
14006;DHT22;7078;51.542;7.314;2024-01-30T14:25:43;12.10;99.90
14006;DHT22;7078;51.542;7.314;2024-01-30T14:28:09;12.10;99.90
14006;DHT22;7078;51.542;7.314;2024-01-30T14:30:34;12.10;99.90
14006;DHT22;7078;51.542;7.314;2024-01-30T14:33:01;12.10;99.90
14006;DHT22;7078;51.542;7.314;2024-01-30T14:35:26;12.10;99.90
14006;DHT22;7078;51.542;7.314;2024-01-30T14:37:52;12.10;99.90
14006;DHT22;7078;51.542;7.314;2024-01-30T14:40:18;12.20;99.90
14006;DHT22;7078;51.542;7.314;2024-01-30T14:42:44;12.20;99.90
14006;DHT22;7078;51.542;7.314;2024-01-30T14:45:10;12.20;99.90
14006;DHT22;7078;51.542;7.314;2024-01-30T14:47:37;12.10;99.90
14006;DHT22;7078;51.542;7.314;2024-01-30T14:50:03;12.20;99.90
14006;DHT22;7078;51.542;7.314;2024-01-30T14:52:30;12.30;99.90
14006;DHT22;7078;51.542;7.314;2024-01-30T14:54:57;12.20;99.90
14006;DHT22;7078;51.542;7.314;2024-01-30T14:57:23;12.20;99.90
14006;DHT22;7078;51.542;7.314;2024-01-30T14:59:49;12.20;99.90
14006;DHT22;7078;51.542;7.314;2024-01-30T15:02:14;12.20;99.90
14006;DHT22;7078;51.542;7.314;2024-01-30T15:04:40;12.10;99.90
14006;DHT22;7078;51.542;7.314;2024-01-30T15:07:05;12.20;99.90
14006;DHT22;7078;51.542;7.314;2024-01-30T15:09:31;12.30;99.90
14006;DHT22;7078;51.542;7.314;2024-01-30T15:11:57;12.30;99.90
14006;DHT22;7078;51.542;7.314;2024-01-30T15:14:23;12.40;99.90
14006;DHT22;7078;51.542;7.314;2024-01-30T15:16:49;12.30;99.90
14006;DHT22;7078;51.542;7.314;2024-01-30T15:19:15;12.30;99.90
14006;DHT22;7078;51.542;7.314;2024-01-30T15:21:40;12.30;99.90
14006;DHT22;7078;51.542;7.314;2024-01-30T15:24:06;12.30;99.90
14006;DHT22;7078;51.542;7.314;2024-01-30T15:26:32;12.10;99.90
14006;DHT22;7078;51.542;7.314;2024-01-30T15:28:57;12.00;99.90
14006;DHT22;7078;51.542;7.314;2024-01-30T15:31:23;12.00;99.90
14006;DHT22;7078;51.542;7.314;2024-01-30T15:33:49;12.00;99.90
14006;DHT22;7078;51.542;7.314;2024-01-30T15:36:14;11.90;99.90
14006;DHT22;7078;51.542;7.314;2024-01-30T15:38:40;11.90;99.90
14006;DHT22;7078;51.542;7.314;2024-01-30T15:41:06;11.90;99.90
14006;DHT22;7078;51.542;7.314;2024-01-30T15:43:32;11.80;99.90
14006;DHT22;7078;51.542;7.314;2024-01-30T15:45:58;11.80;99.90
14006;DHT22;7078;51.542;7.314;2024-01-30T15:48:25;11.80;99.90